createdAt,value
2023-03-06T00:00:38.256Z,14
2023-03-06T00:01:38.250Z,15
2023-03-06T00:02:38.281Z,14
2023-03-06T00:03:38.397Z,15
2023-03-06T00:04:38.250Z,14
2023-03-06T00:05:38.278Z,14
2023-03-06T00:06:38.256Z,14
2023-03-06T00:07:38.248Z,14
2023-03-06T00:08:38.296Z,12
2023-03-06T00:09:38.259Z,13
2023-03-06T00:10:38.260Z,13
2023-03-06T00:11:38.265Z,13
2023-03-06T00:12:38.258Z,12
2023-03-06T00:13:38.261Z,13
2023-03-06T00:14:38.263Z,12
2023-03-06T00:15:38.277Z,12
2023-03-06T00:16:38.360Z,12
2023-03-06T00:17:38.251Z,11
2023-03-06T00:18:38.269Z,11
2023-03-06T00:19:38.263Z,12
2023-03-06T00:20:38.253Z,11
2023-03-06T00:21:38.254Z,11
2023-03-06T00:22:38.261Z,11
2023-03-06T00:23:38.267Z,11
2023-03-06T00:24:38.263Z,11
2023-03-06T00:25:38.258Z,10
2023-03-06T00:26:38.261Z,10
2023-03-06T00:27:38.264Z,10
2023-03-06T00:28:38.257Z,10
2023-03-06T00:29:38.254Z,10
2023-03-06T00:30:38.252Z,10
2023-03-06T00:31:38.326Z,10
2023-03-06T00:32:38.286Z,10
2023-03-06T00:33:38.283Z,10
2023-03-06T00:34:38.248Z,10
2023-03-06T00:35:38.293Z,10
2023-03-06T00:36:38.253Z,10
2023-03-06T00:37:38.243Z,10
2023-03-06T00:38:38.286Z,10
2023-03-06T00:39:38.262Z,10
2023-03-06T00:40:38.258Z,10
2023-03-06T00:41:38.253Z,10
2023-03-06T00:42:38.257Z,11
2023-03-06T00:43:38.260Z,11
2023-03-06T00:44:38.257Z,10
2023-03-06T00:45:38.360Z,11
2023-03-06T00:46:38.252Z,10
2023-03-06T00:47:38.275Z,10
2023-03-06T00:48:38.263Z,11
2023-03-06T00:49:38.252Z,11
2023-03-06T00:50:38.251Z,11
2023-03-06T00:51:38.263Z,10
2023-03-06T00:52:38.259Z,11
2023-03-06T00:53:38.260Z,11
2023-03-06T00:54:38.254Z,11
2023-03-06T00:55:38.255Z,11
2023-03-06T00:56:38.258Z,11
2023-03-06T00:57:38.271Z,12
2023-03-06T00:58:38.267Z,11
2023-03-06T01:00:38.392Z,12
2023-03-06T01:01:38.255Z,12
2023-03-06T01:02:38.266Z,12
2023-03-06T01:04:38.308Z,13
2023-03-06T01:05:38.258Z,13
2023-03-06T01:06:38.251Z,14
2023-03-06T01:07:38.263Z,12
2023-03-06T01:08:38.258Z,12
2023-03-06T01:09:38.258Z,12
2023-03-06T01:10:38.248Z,13
2023-03-06T01:11:38.250Z,13
2023-03-06T01:12:38.261Z,13
2023-03-06T01:13:38.256Z,12
2023-03-06T01:14:38.251Z,13
2023-03-06T01:15:38.249Z,13
2023-03-06T01:16:38.323Z,12
2023-03-06T01:17:38.250Z,11
2023-03-06T01:18:38.251Z,13
2023-03-06T01:19:38.254Z,12
2023-03-06T01:20:38.261Z,13
2023-03-06T01:21:38.274Z,12
2023-03-06T01:22:38.254Z,13
2023-03-06T01:23:38.254Z,13
2023-03-06T01:24:38.410Z,12
2023-03-06T01:25:38.251Z,13
2023-03-06T01:26:38.249Z,12
2023-03-06T01:27:38.256Z,12
2023-03-06T01:28:38.250Z,12
2023-03-06T01:29:38.252Z,11
2023-03-06T01:30:38.260Z,12
2023-03-06T01:31:38.281Z,11
2023-03-06T01:32:38.379Z,11
2023-03-06T01:33:38.296Z,12
2023-03-06T01:34:38.265Z,11
2023-03-06T01:35:38.400Z,12
2023-03-06T01:36:38.260Z,13
2023-03-06T01:37:38.251Z,12
2023-03-06T01:38:38.250Z,13
2023-03-06T01:39:38.262Z,12
2023-03-06T01:40:38.388Z,12
2023-03-06T01:41:38.280Z,12
2023-03-06T01:42:38.250Z,13
2023-03-06T01:43:38.273Z,13
2023-03-06T01:44:38.256Z,14
2023-03-06T01:45:38.294Z,14
2023-03-06T01:46:38.259Z,15
2023-03-06T01:47:38.322Z,16
2023-03-06T01:48:38.253Z,15
2023-03-06T01:49:38.257Z,16
2023-03-06T01:50:38.265Z,16
2023-03-06T01:51:38.261Z,16
2023-03-06T01:52:38.252Z,17
2023-03-06T01:53:38.264Z,16
2023-03-06T01:54:38.272Z,16
2023-03-06T01:55:38.257Z,16
2023-03-06T01:56:38.257Z,16
2023-03-06T01:57:38.260Z,17
2023-03-06T01:58:38.264Z,16
2023-03-06T01:59:38.261Z,16
2023-03-06T02:00:38.279Z,16
2023-03-06T02:01:38.270Z,16
2023-03-06T02:02:38.385Z,16
2023-03-06T02:03:38.258Z,16
2023-03-06T02:04:38.268Z,20
2023-03-06T02:05:38.264Z,20
2023-03-06T02:06:38.279Z,19
2023-03-06T02:07:38.269Z,19
2023-03-06T02:08:38.260Z,18
2023-03-06T02:09:38.281Z,20
2023-03-06T02:10:38.263Z,19
2023-03-06T02:11:38.325Z,19
2023-03-06T02:12:38.530Z,19
2023-03-06T02:13:38.274Z,19
2023-03-06T02:14:38.269Z,19
2023-03-06T02:15:38.266Z,19
2023-03-06T02:16:38.341Z,19
2023-03-06T02:17:38.268Z,18
2023-03-06T02:18:38.268Z,18
2023-03-06T02:19:38.272Z,19
2023-03-06T02:20:38.270Z,19
2023-03-06T02:21:38.266Z,19
2023-03-06T02:22:38.266Z,17
2023-03-06T02:23:38.268Z,18
2023-03-06T02:24:38.278Z,17
2023-03-06T02:25:38.288Z,16
2023-03-06T02:26:38.359Z,16
2023-03-06T02:27:38.267Z,16
2023-03-06T02:28:38.276Z,16
2023-03-06T02:29:38.258Z,16
2023-03-06T02:30:38.328Z,15
2023-03-06T02:31:38.270Z,15
2023-03-06T02:32:38.410Z,15
2023-03-06T02:33:38.272Z,15
2023-03-06T02:34:38.272Z,15
2023-03-06T02:35:38.382Z,14
2023-03-06T02:36:38.257Z,14
2023-03-06T02:37:38.675Z,14
2023-03-06T02:38:38.286Z,14
2023-03-06T02:39:38.275Z,14
2023-03-06T02:40:38.300Z,14
2023-03-06T02:41:38.359Z,13
2023-03-06T02:42:38.278Z,14
2023-03-06T02:43:38.263Z,15
2023-03-06T02:44:38.265Z,14
2023-03-06T02:45:38.271Z,14
2023-03-06T02:46:38.269Z,15
2023-03-06T02:47:38.304Z,15
2023-03-06T02:48:38.264Z,15
2023-03-06T02:49:38.263Z,14
2023-03-06T02:50:38.262Z,15
2023-03-06T02:51:38.271Z,15
2023-03-06T02:52:38.271Z,15
2023-03-06T02:53:38.280Z,14
2023-03-06T02:54:38.266Z,14
2023-03-06T02:55:38.256Z,15
2023-03-06T02:56:38.251Z,15
2023-03-06T02:57:38.298Z,14
2023-03-06T02:58:38.361Z,15
2023-03-06T02:59:38.263Z,15
2023-03-06T03:00:39.961Z,15
2023-03-06T03:01:38.433Z,15
2023-03-06T03:02:38.294Z,15
2023-03-06T03:03:38.280Z,16
2023-03-06T03:04:38.374Z,16
2023-03-06T03:05:38.254Z,17
2023-03-06T03:06:38.248Z,16
2023-03-06T03:07:38.252Z,17
2023-03-06T03:08:38.375Z,16
2023-03-06T03:09:38.266Z,17
2023-03-06T03:10:38.255Z,17
2023-03-06T03:11:38.261Z,16
2023-03-06T03:12:38.262Z,16
2023-03-06T03:13:38.260Z,17
2023-03-06T03:14:38.263Z,16
2023-03-06T03:15:38.353Z,15
2023-03-06T03:16:39.242Z,16
2023-03-06T03:17:38.296Z,16
2023-03-06T03:18:38.261Z,15
2023-03-06T03:19:38.272Z,15
2023-03-06T03:20:38.264Z,14
2023-03-06T03:21:38.263Z,14
2023-03-06T03:22:38.270Z,15
2023-03-06T03:23:38.282Z,15
2023-03-06T03:24:38.358Z,15
2023-03-06T03:25:38.270Z,15
2023-03-06T03:26:38.267Z,15
2023-03-06T03:27:38.301Z,16
2023-03-06T03:28:38.260Z,15
2023-03-06T03:29:38.260Z,16
2023-03-06T03:30:38.264Z,14
2023-03-06T03:31:38.263Z,15
2023-03-06T03:32:38.398Z,15
2023-03-06T03:33:38.266Z,16
2023-03-06T03:34:38.272Z,15
2023-03-06T03:35:38.345Z,16
2023-03-06T03:36:38.258Z,15
2023-03-06T03:37:38.265Z,16
2023-03-06T03:38:38.262Z,15
2023-03-06T03:39:38.282Z,15
2023-03-06T03:40:38.270Z,15
2023-03-06T03:41:38.281Z,15
2023-03-06T03:42:38.271Z,15
2023-03-06T03:43:38.272Z,16
2023-03-06T03:44:38.279Z,14
2023-03-06T03:45:38.270Z,14
2023-03-06T03:46:38.367Z,14
2023-03-06T03:47:38.271Z,15
2023-03-06T03:48:38.283Z,14
2023-03-06T03:49:38.282Z,15
2023-03-06T03:50:38.404Z,14
2023-03-06T03:51:38.271Z,14
2023-03-06T03:52:38.407Z,15
2023-03-06T03:53:38.268Z,15
2023-03-06T03:54:38.278Z,13
2023-03-06T03:55:38.267Z,13
2023-03-06T03:56:38.300Z,13
2023-03-06T03:57:38.265Z,14
2023-03-06T03:58:38.268Z,13
2023-03-06T03:59:38.261Z,12
2023-03-06T04:00:38.269Z,12
2023-03-06T04:01:39.700Z,12
2023-03-06T04:02:38.263Z,13
2023-03-06T04:03:38.262Z,13
2023-03-06T04:04:38.319Z,12
2023-03-06T04:05:38.301Z,12
2023-03-06T04:06:38.252Z,12
2023-03-06T04:07:38.270Z,11
2023-03-06T04:08:38.260Z,11
2023-03-06T04:09:38.272Z,10
2023-03-06T04:10:38.287Z,11
2023-03-06T04:11:38.270Z,11
2023-03-06T04:12:38.283Z,11
2023-03-06T04:13:38.269Z,10
2023-03-06T04:14:38.263Z,10
2023-03-06T04:15:38.264Z,9
2023-03-06T04:16:38.264Z,10
2023-03-06T04:17:38.285Z,10
2023-03-06T04:18:38.381Z,10
2023-03-06T04:19:38.262Z,10
2023-03-06T04:20:38.270Z,10
2023-03-06T04:21:38.350Z,11
2023-03-06T04:22:38.269Z,10
2023-03-06T04:23:38.269Z,11
2023-03-06T04:24:38.260Z,11
2023-03-06T04:25:38.264Z,11
2023-03-06T04:26:38.263Z,11
2023-03-06T04:27:38.277Z,11
2023-03-06T04:28:38.274Z,11
2023-03-06T04:29:38.277Z,12
2023-03-06T04:30:38.264Z,12
2023-03-06T04:31:38.325Z,12
2023-03-06T04:32:38.341Z,12
2023-03-06T04:33:38.269Z,12
2023-03-06T04:34:38.282Z,12
2023-03-06T04:35:38.319Z,13
2023-03-06T04:36:38.257Z,13
2023-03-06T04:37:38.269Z,13
2023-03-06T04:38:38.293Z,12
2023-03-06T04:39:38.291Z,13
2023-03-06T04:40:38.274Z,12
2023-03-06T04:41:38.292Z,13
2023-03-06T04:42:38.293Z,13
2023-03-06T04:43:38.263Z,14
2023-03-06T04:44:38.272Z,14
2023-03-06T04:45:38.306Z,14
2023-03-06T04:46:38.263Z,14
2023-03-06T04:47:38.277Z,14
2023-03-06T04:48:38.261Z,14
2023-03-06T04:49:38.273Z,14
2023-03-06T04:50:38.268Z,14
2023-03-06T04:51:38.356Z,14
2023-03-06T04:52:38.428Z,15
2023-03-06T04:53:38.268Z,15
2023-03-06T04:54:38.647Z,15
2023-03-06T04:55:38.264Z,15
2023-03-06T04:56:38.330Z,15
2023-03-06T04:57:38.272Z,15
2023-03-06T04:58:38.264Z,15
2023-03-06T04:59:39.334Z,15
2023-03-06T05:00:38.342Z,15
2023-03-06T05:01:38.267Z,15
2023-03-06T05:02:38.261Z,15
2023-03-06T05:03:38.270Z,16
2023-03-06T05:04:38.266Z,15
2023-03-06T05:05:38.285Z,16
2023-03-06T05:06:38.283Z,16
2023-03-06T05:07:38.268Z,16
2023-03-06T05:08:38.268Z,16
2023-03-06T05:09:39.219Z,16
2023-03-06T05:10:38.261Z,17
2023-03-06T05:11:38.271Z,17
2023-03-06T05:12:38.288Z,18
2023-03-06T05:13:38.276Z,18
2023-03-06T05:14:38.279Z,18
2023-03-06T05:15:38.258Z,18
2023-03-06T05:16:38.382Z,18
2023-03-06T05:17:38.271Z,17
2023-03-06T05:18:38.262Z,19
2023-03-06T05:19:38.269Z,19
2023-03-06T05:20:38.264Z,18
2023-03-06T05:21:38.259Z,19
2023-03-06T05:22:38.289Z,19
2023-03-06T05:23:38.261Z,20
2023-03-06T05:24:38.270Z,19
2023-03-06T05:25:38.268Z,20
2023-03-06T05:26:38.264Z,21
2023-03-06T05:27:38.268Z,21
2023-03-06T05:28:38.269Z,21
2023-03-06T05:29:38.270Z,21
2023-03-06T05:30:38.267Z,21
2023-03-06T05:31:38.369Z,21
2023-03-06T05:32:38.349Z,21
2023-03-06T05:33:38.272Z,21
2023-03-06T05:34:38.266Z,22
2023-03-06T05:35:38.329Z,22
2023-03-06T05:36:38.281Z,22
2023-03-06T05:37:38.264Z,22
2023-03-06T05:38:38.270Z,22
2023-03-06T05:39:38.277Z,23
2023-03-06T05:40:38.268Z,23
2023-03-06T05:41:38.266Z,22
2023-03-06T05:42:38.307Z,23
2023-03-06T05:43:38.299Z,23
2023-03-06T05:44:38.281Z,23
2023-03-06T05:45:38.343Z,23
2023-03-06T05:46:38.280Z,24
2023-03-06T05:47:38.280Z,24
2023-03-06T05:48:38.266Z,24
2023-03-06T05:49:38.279Z,24
2023-03-06T05:50:38.275Z,25
2023-03-06T05:51:38.284Z,24
2023-03-06T05:52:38.279Z,25
2023-03-06T05:53:38.347Z,25
2023-03-06T05:54:38.280Z,27
2023-03-06T05:55:38.280Z,26
2023-03-06T05:56:38.262Z,25
2023-03-06T05:57:38.268Z,26
2023-03-06T05:58:38.271Z,26
2023-03-06T05:59:38.274Z,26
2023-03-06T06:00:38.268Z,27
2023-03-06T06:01:38.264Z,27
2023-03-06T06:03:38.372Z,26
2023-03-06T06:04:38.279Z,26
2023-03-06T06:05:38.293Z,26
2023-03-06T06:06:38.275Z,27
2023-03-06T06:07:38.286Z,25
2023-03-06T06:08:38.269Z,26
2023-03-06T06:09:38.274Z,26
2023-03-06T06:10:38.273Z,25
2023-03-06T06:11:38.271Z,26
2023-03-06T06:12:38.267Z,26
2023-03-06T06:13:38.276Z,25
2023-03-06T06:14:38.294Z,26
2023-03-06T06:15:38.296Z,26
2023-03-06T06:16:38.271Z,26
2023-03-06T06:17:38.296Z,26
2023-03-06T06:18:41.023Z,26
2023-03-06T06:19:38.262Z,27
2023-03-06T06:20:38.610Z,27
2023-03-06T06:21:38.274Z,28
2023-03-06T06:22:38.294Z,29
2023-03-06T06:23:38.271Z,29
2023-03-06T06:24:38.269Z,29
2023-03-06T06:25:38.272Z,28
2023-03-06T06:26:38.267Z,30
2023-03-06T06:27:38.264Z,31
2023-03-06T06:28:38.279Z,31
2023-03-06T06:29:38.279Z,31
2023-03-06T06:30:38.264Z,30
2023-03-06T06:31:38.263Z,30
2023-03-06T06:32:38.433Z,32
2023-03-06T06:33:38.266Z,32
2023-03-06T06:34:38.270Z,31
2023-03-06T06:35:38.321Z,31
2023-03-06T06:37:38.265Z,31
2023-03-06T06:38:38.269Z,31
2023-03-06T06:39:38.266Z,33
2023-03-06T06:40:38.279Z,33
2023-03-06T06:41:57.023Z,32
2023-03-06T06:42:40.088Z,31
2023-03-06T06:43:38.269Z,30
2023-03-06T06:44:38.303Z,32
2023-03-06T06:45:38.290Z,30
2023-03-06T06:47:38.480Z,28
2023-03-06T06:48:38.272Z,28
2023-03-06T06:49:38.266Z,29
2023-03-06T06:50:38.277Z,28
2023-03-06T06:51:38.264Z,27
2023-03-06T06:52:38.273Z,27
2023-03-06T06:53:38.266Z,27
2023-03-06T06:54:38.266Z,27
2023-03-06T06:55:38.294Z,26
2023-03-06T06:56:38.274Z,26
2023-03-06T06:57:38.263Z,28
2023-03-06T06:58:38.273Z,27
2023-03-06T06:59:38.264Z,26
2023-03-06T07:00:38.267Z,27
2023-03-06T07:01:38.340Z,28
2023-03-06T07:02:38.266Z,27
2023-03-06T07:03:38.308Z,29
2023-03-06T07:04:40.962Z,28
2023-03-06T07:05:38.276Z,29
2023-03-06T07:06:38.292Z,29
2023-03-06T07:07:38.283Z,31
2023-03-06T07:08:38.276Z,29
2023-03-06T07:09:38.316Z,30
2023-03-06T07:10:38.270Z,31
2023-03-06T07:11:38.270Z,30
2023-03-06T07:12:38.271Z,29
2023-03-06T07:13:38.277Z,30
2023-03-06T07:14:38.269Z,30
2023-03-06T07:15:38.348Z,30
2023-03-06T07:16:38.296Z,30
2023-03-06T07:17:38.272Z,30
2023-03-06T07:18:38.272Z,31
2023-03-06T07:19:38.737Z,30
2023-03-06T07:20:38.275Z,31
2023-03-06T07:21:38.277Z,32
2023-03-06T07:22:50.343Z,31
2023-03-06T07:23:38.270Z,32
2023-03-06T07:24:38.272Z,31
2023-03-06T07:25:38.273Z,31
2023-03-06T07:27:38.331Z,33
2023-03-06T07:28:51.512Z,33
2023-03-06T07:29:38.281Z,33
2023-03-06T07:30:38.270Z,32
2023-03-06T07:31:38.362Z,33
2023-03-06T07:32:38.403Z,33
2023-03-06T07:33:38.275Z,33
2023-03-06T07:34:38.270Z,33
2023-03-06T07:35:38.279Z,33
2023-03-06T07:36:38.276Z,34
2023-03-06T07:37:38.295Z,34
2023-03-06T07:38:38.270Z,33
2023-03-06T07:39:38.277Z,34
2023-03-06T07:40:38.288Z,33
2023-03-06T07:41:38.291Z,34
2023-03-06T07:42:38.287Z,33
2023-03-06T07:43:38.282Z,33
2023-03-06T07:44:38.299Z,34
2023-03-06T07:45:38.279Z,33
2023-03-06T07:46:38.305Z,33
2023-03-06T07:47:38.361Z,34
2023-03-06T07:48:38.280Z,33
2023-03-06T07:49:38.278Z,32
2023-03-06T07:50:38.282Z,33
2023-03-06T07:51:38.279Z,32
2023-03-06T07:52:38.283Z,33
2023-03-06T07:53:38.284Z,32
2023-03-06T07:54:38.288Z,32
2023-03-06T07:55:38.277Z,31
2023-03-06T07:56:38.281Z,34
2023-03-06T07:57:38.278Z,33
2023-03-06T07:58:38.336Z,32
2023-03-06T07:59:38.275Z,31
2023-03-06T08:00:38.277Z,32
2023-03-06T08:01:38.299Z,32
2023-03-06T08:02:38.427Z,32
2023-03-06T08:03:38.335Z,31
2023-03-06T08:04:38.298Z,32
2023-03-06T08:05:38.304Z,31
2023-03-06T08:06:38.279Z,32
2023-03-06T08:07:38.346Z,32
2023-03-06T08:08:38.282Z,30
2023-03-06T08:09:38.276Z,30
2023-03-06T08:10:38.300Z,30
2023-03-06T08:11:38.317Z,32
2023-03-06T08:12:38.296Z,29
2023-03-06T08:13:38.293Z,29
2023-03-06T08:14:38.275Z,29
2023-03-06T08:15:38.273Z,29
2023-03-06T08:16:38.330Z,28
2023-03-06T08:17:38.275Z,28
2023-03-06T08:18:38.305Z,28
2023-03-06T08:19:38.279Z,28
2023-03-06T08:20:38.270Z,27
2023-03-06T08:21:38.271Z,27
2023-03-06T08:22:38.277Z,28
2023-03-06T08:23:38.294Z,28
2023-03-06T08:24:38.278Z,28
2023-03-06T08:25:38.275Z,27
2023-03-06T08:26:38.273Z,27
2023-03-06T08:27:38.271Z,28
2023-03-06T08:28:38.274Z,28
2023-03-06T08:29:38.276Z,29
2023-03-06T08:30:38.280Z,28
2023-03-06T08:31:38.336Z,27
2023-03-06T08:32:38.419Z,27
2023-03-06T08:33:38.279Z,28
2023-03-06T08:34:38.272Z,28
2023-03-06T08:35:38.302Z,27
2023-03-06T08:36:38.280Z,27
2023-03-06T08:37:38.415Z,28
2023-03-06T08:38:38.276Z,27
2023-03-06T08:39:38.271Z,27
2023-03-06T08:40:38.270Z,27
2023-03-06T08:41:38.285Z,28
2023-03-06T08:42:38.277Z,27
2023-03-06T08:43:38.270Z,28
2023-03-06T08:44:38.277Z,28
2023-03-06T08:45:38.311Z,27
2023-03-06T08:46:38.278Z,28
2023-03-06T08:47:38.334Z,27
2023-03-06T08:48:38.287Z,28
2023-03-06T08:49:38.308Z,28
2023-03-06T08:50:38.279Z,28
2023-03-06T08:51:38.284Z,28
2023-03-06T08:52:38.272Z,26
2023-03-06T08:53:43.682Z,28
2023-03-06T08:54:38.363Z,27
2023-03-06T08:55:38.274Z,26
2023-03-06T08:56:38.280Z,27
2023-03-06T08:57:38.272Z,26
2023-03-06T08:58:38.275Z,27
2023-03-06T08:59:38.291Z,25
2023-03-06T09:00:38.443Z,25
2023-03-06T09:01:38.357Z,25
2023-03-06T09:02:38.354Z,25
2023-03-06T09:03:38.279Z,23
2023-03-06T09:04:38.270Z,25
2023-03-06T09:05:38.277Z,27
2023-03-06T09:06:38.281Z,25
2023-03-06T09:07:38.288Z,25
2023-03-06T09:08:38.330Z,28
2023-03-06T09:09:38.278Z,28
2023-03-06T09:10:38.399Z,27
2023-03-06T09:11:38.298Z,28
2023-03-06T09:12:49.429Z,29
2023-03-06T09:13:38.285Z,28
2023-03-06T09:14:38.393Z,29
2023-03-06T09:15:38.276Z,28
2023-03-06T09:16:38.354Z,28
2023-03-06T09:17:38.363Z,28
2023-03-06T09:18:38.268Z,28
2023-03-06T09:19:38.276Z,28
2023-03-06T09:20:38.307Z,30
2023-03-06T09:21:38.273Z,28
2023-03-06T09:22:38.319Z,30
2023-03-06T09:23:38.274Z,29
2023-03-06T09:24:38.284Z,31
2023-03-06T09:25:38.278Z,31
2023-03-06T09:26:46.166Z,31
2023-03-06T09:27:38.280Z,31
2023-03-06T09:28:38.282Z,31
2023-03-06T09:29:38.286Z,33
2023-03-06T09:30:38.346Z,33
2023-03-06T09:31:38.417Z,33
2023-03-06T09:32:38.368Z,33
2023-03-06T09:33:38.282Z,30
2023-03-06T09:34:38.283Z,26
2023-03-06T09:35:38.315Z,26
2023-03-06T09:36:55.043Z,29
2023-03-06T09:37:38.281Z,25
2023-03-06T09:38:38.296Z,24
2023-03-06T09:39:38.282Z,26
2023-03-06T09:40:38.286Z,25
2023-03-06T09:41:38.284Z,25
2023-03-06T09:42:38.286Z,24
2023-03-06T09:44:38.279Z,23
2023-03-06T09:45:38.276Z,23
2023-03-06T09:47:38.289Z,18
2023-03-06T09:48:38.304Z,19
2023-03-06T09:49:38.283Z,20
2023-03-06T09:50:38.285Z,18
2023-03-06T09:52:38.277Z,18
2023-03-06T09:53:38.276Z,18
2023-03-06T09:54:38.303Z,18
2023-03-06T09:55:38.278Z,19
2023-03-06T09:56:38.286Z,18
2023-03-06T09:58:38.286Z,19
2023-03-06T09:59:38.274Z,19
2023-03-06T10:00:38.272Z,18
2023-03-06T10:01:38.279Z,18
2023-03-06T10:03:38.276Z,16
2023-03-06T10:05:38.278Z,16
2023-03-06T10:06:38.280Z,16
2023-03-06T10:08:38.292Z,15
2023-03-06T10:09:38.281Z,15
2023-03-06T10:10:38.277Z,15
2023-03-06T10:11:38.272Z,16
2023-03-06T10:13:38.270Z,16
2023-03-06T10:14:38.274Z,16
2023-03-06T10:15:38.311Z,17
2023-03-06T10:16:38.284Z,16
2023-03-06T10:17:38.297Z,16
2023-03-06T10:18:38.275Z,16
2023-03-06T10:19:38.284Z,16
2023-03-06T10:21:38.271Z,17
2023-03-06T10:22:38.366Z,16
2023-03-06T10:23:38.278Z,16
2023-03-06T10:24:38.280Z,16
2023-03-06T10:26:38.412Z,14
2023-03-06T10:27:38.279Z,15
2023-03-06T10:29:39.207Z,14
2023-03-06T10:30:38.280Z,14
2023-03-06T10:31:38.284Z,13
2023-03-06T10:32:48.301Z,13
2023-03-06T10:34:38.284Z,15
2023-03-06T10:35:38.288Z,14
2023-03-06T10:36:38.278Z,13
2023-03-06T10:37:38.283Z,14
2023-03-06T10:39:38.286Z,13
2023-03-06T10:40:38.290Z,13
2023-03-06T10:42:38.284Z,12
2023-03-06T10:43:38.278Z,11
2023-03-06T10:44:38.286Z,12
2023-03-06T10:45:49.021Z,10
2023-03-06T10:47:38.284Z,11
2023-03-06T10:48:40.811Z,10
2023-03-06T10:49:38.296Z,10
2023-03-06T10:50:38.333Z,10
2023-03-06T10:51:38.284Z,8
2023-03-06T10:52:38.288Z,8
2023-03-06T10:53:38.340Z,9
2023-03-06T10:54:38.301Z,8
2023-03-06T10:55:38.292Z,8
2023-03-06T10:56:38.283Z,7
2023-03-06T10:57:38.294Z,7
2023-03-06T10:58:38.279Z,7
2023-03-06T10:59:38.279Z,7
2023-03-06T11:01:38.345Z,7
2023-03-06T11:02:38.293Z,6
2023-03-06T11:03:38.284Z,6
2023-03-06T11:04:38.408Z,7
2023-03-06T11:06:38.284Z,7
2023-03-06T11:07:38.280Z,7
2023-03-06T11:08:38.283Z,8
2023-03-06T11:09:38.284Z,8
2023-03-06T11:10:38.282Z,8
2023-03-06T11:11:38.282Z,9
2023-03-06T11:12:38.280Z,8
2023-03-06T11:13:38.288Z,8
2023-03-06T11:14:38.308Z,8
2023-03-06T11:15:38.279Z,9
2023-03-06T11:16:38.280Z,8
2023-03-06T11:17:38.284Z,8
2023-03-06T11:18:38.281Z,8
2023-03-06T11:19:38.279Z,8
2023-03-06T11:20:50.437Z,9
2023-03-06T11:22:38.283Z,10
2023-03-06T11:23:38.344Z,10
2023-03-06T11:24:38.357Z,10
2023-03-06T11:25:38.293Z,11
2023-03-06T11:27:38.288Z,10
2023-03-06T11:28:38.289Z,10
2023-03-06T11:30:38.351Z,10
2023-03-06T11:31:38.350Z,9
2023-03-06T11:32:38.318Z,10
2023-03-06T11:33:38.280Z,9
2023-03-06T11:34:38.277Z,9
2023-03-06T11:35:38.339Z,9
2023-03-06T11:36:38.280Z,8
2023-03-06T11:37:38.285Z,8
2023-03-06T11:38:38.275Z,8
2023-03-06T11:39:38.277Z,8
2023-03-06T11:40:38.296Z,7
2023-03-06T11:41:38.294Z,7
2023-03-06T11:43:38.276Z,8
2023-03-06T11:44:38.283Z,8
2023-03-06T11:45:38.278Z,8
2023-03-06T11:46:38.306Z,8
2023-03-06T11:48:38.274Z,7
2023-03-06T11:49:38.285Z,8
2023-03-06T11:51:38.272Z,8
2023-03-06T11:52:38.275Z,7
2023-03-06T11:53:38.338Z,7
2023-03-06T11:54:38.287Z,7
2023-03-06T11:56:38.301Z,7
2023-03-06T11:57:38.282Z,7
2023-03-06T11:59:38.298Z,8
2023-03-06T12:00:38.446Z,8
2023-03-06T12:02:38.292Z,8
2023-03-06T12:03:38.280Z,9
2023-03-06T12:04:38.294Z,10
2023-03-06T12:05:38.414Z,11
2023-03-06T12:07:38.283Z,10
2023-03-06T12:08:38.288Z,11
2023-03-06T12:09:38.297Z,11
2023-03-06T12:10:38.396Z,12
2023-03-06T12:11:38.288Z,11
2023-03-06T12:12:38.288Z,11
2023-03-06T12:13:38.296Z,12
2023-03-06T12:15:38.471Z,12
2023-03-06T12:16:38.363Z,12
2023-03-06T12:17:38.310Z,12
2023-03-06T12:18:38.303Z,12
2023-03-06T12:20:38.455Z,11
2023-03-06T12:21:38.288Z,11
2023-03-06T12:23:38.284Z,11
2023-03-06T12:24:38.288Z,11
2023-03-06T12:25:38.281Z,10
2023-03-06T12:26:38.316Z,10
2023-03-06T12:36:39.432Z,7
2023-03-06T12:37:38.281Z,7
2023-03-06T12:43:40.051Z,8
2023-03-06T12:44:38.286Z,8
2023-03-06T12:45:38.465Z,8
2023-03-06T12:46:38.278Z,7
2023-03-06T12:47:38.286Z,7
2023-03-06T12:48:38.289Z,7
2023-03-06T12:49:38.291Z,7
2023-03-06T12:50:38.296Z,7
2023-03-06T12:51:38.295Z,7
2023-03-06T12:52:38.292Z,7
2023-03-06T12:53:38.295Z,6
2023-03-06T12:55:38.294Z,6
2023-03-06T12:56:38.292Z,6
2023-03-06T12:57:38.320Z,6
2023-03-06T12:58:38.292Z,6
2023-03-06T12:59:38.293Z,5
2023-03-06T13:00:38.289Z,4
2023-03-06T13:01:38.326Z,5
2023-03-06T13:02:38.305Z,5
2023-03-06T13:03:38.302Z,5
2023-03-06T13:04:38.294Z,5
2023-03-06T13:05:38.306Z,6
2023-03-06T13:06:45.076Z,5
2023-03-06T13:07:38.304Z,5
2023-03-06T13:08:38.290Z,5
2023-03-06T13:09:38.286Z,4
2023-03-06T13:10:38.298Z,5
2023-03-06T13:12:38.287Z,5
2023-03-06T13:13:38.312Z,5
2023-03-06T13:14:42.406Z,5
2023-03-06T13:15:38.345Z,4
2023-03-06T13:17:38.287Z,4
2023-03-06T13:18:38.292Z,4
2023-03-06T13:20:38.296Z,4
2023-03-06T13:21:38.311Z,4
2023-03-06T13:22:38.338Z,4
2023-03-06T13:23:38.362Z,4
2023-03-06T13:25:39.968Z,4
2023-03-06T13:26:38.289Z,4
2023-03-06T13:28:38.315Z,4
2023-03-06T13:29:38.410Z,4
2023-03-06T13:30:38.352Z,4
2023-03-06T13:31:38.359Z,4
2023-03-06T13:33:38.296Z,4
2023-03-06T13:34:38.291Z,4
2023-03-06T13:35:38.316Z,3
2023-03-06T13:36:39.823Z,3
2023-03-06T13:38:38.290Z,3
2023-03-06T13:41:38.302Z,3
2023-03-06T13:42:38.677Z,3
2023-03-06T13:43:38.294Z,3
2023-03-06T13:44:38.296Z,3
2023-03-06T13:46:38.325Z,3
2023-03-06T13:48:01.351Z,3
2023-03-06T13:49:38.292Z,3
2023-03-06T13:50:38.296Z,2
2023-03-06T13:51:38.402Z,2
2023-03-06T13:52:38.301Z,2
2023-03-06T13:54:38.297Z,2
2023-03-06T13:55:38.293Z,2
2023-03-06T13:56:38.299Z,2
2023-03-06T13:57:38.288Z,2
2023-03-06T13:59:38.318Z,3
2023-03-06T14:02:38.459Z,3
2023-03-06T14:03:38.293Z,3
2023-03-06T14:04:38.318Z,3
2023-03-06T14:05:38.295Z,2
2023-03-06T14:06:38.306Z,3
2023-03-06T14:08:38.290Z,3
2023-03-06T14:09:38.294Z,2
2023-03-06T14:10:38.348Z,3
2023-03-06T14:11:38.291Z,3
2023-03-06T14:12:38.299Z,2
2023-03-06T14:13:45.452Z,2
2023-03-06T14:14:38.291Z,2
2023-03-06T14:15:38.388Z,2
2023-03-06T14:16:49.388Z,2
2023-03-06T14:17:38.301Z,2
2023-03-06T14:18:38.304Z,2
2023-03-06T14:19:38.291Z,2
2023-03-06T14:22:38.308Z,2
2023-03-06T14:23:38.371Z,2
2023-03-06T14:24:38.294Z,2
2023-03-06T14:26:38.295Z,2
2023-03-06T14:27:38.307Z,2
2023-03-06T14:28:38.298Z,2
2023-03-06T14:29:38.296Z,2
2023-03-06T14:30:38.322Z,2
2023-03-06T14:31:38.412Z,2
2023-03-06T14:32:38.367Z,2
2023-03-06T14:33:38.297Z,2
2023-03-06T14:34:38.318Z,2
2023-03-06T14:35:38.397Z,2
2023-03-06T14:36:38.311Z,2
2023-03-06T14:37:38.322Z,2
2023-03-06T14:39:38.320Z,2
2023-03-06T14:40:38.303Z,2
2023-03-06T14:42:38.343Z,2
2023-03-06T14:43:38.297Z,2
2023-03-06T14:44:38.301Z,2
2023-03-06T14:45:38.295Z,2
2023-03-06T14:47:38.297Z,3
2023-03-06T14:50:39.835Z,3
2023-03-06T14:51:38.288Z,3
2023-03-06T14:52:38.304Z,3
2023-03-06T14:53:38.313Z,3
2023-03-06T14:55:38.300Z,3
2023-03-06T14:56:38.302Z,3
2023-03-06T14:57:38.309Z,3
2023-03-06T14:58:38.297Z,3
2023-03-06T15:00:38.399Z,3
2023-03-06T15:01:38.427Z,3
2023-03-06T15:03:38.355Z,3
2023-03-06T15:04:38.297Z,3
2023-03-06T15:05:38.296Z,3
2023-03-06T15:06:38.429Z,3
2023-03-06T15:07:38.373Z,3
2023-03-06T15:08:38.299Z,3
2023-03-06T15:09:38.293Z,3
2023-03-06T15:11:38.291Z,4
2023-03-06T15:12:38.310Z,3
2023-03-06T15:13:38.296Z,3
2023-03-06T15:14:38.317Z,3
2023-03-06T15:16:38.521Z,4
2023-03-06T15:17:38.336Z,4
2023-03-06T15:18:38.301Z,4
2023-03-06T15:19:38.290Z,6
2023-03-06T15:22:38.336Z,6
2023-03-06T15:23:38.291Z,7
2023-03-06T15:24:38.298Z,10
2023-03-06T15:25:38.295Z,10
2023-03-06T15:26:38.295Z,11
2023-03-06T15:27:38.294Z,13
2023-03-06T15:29:38.296Z,15
2023-03-06T15:30:38.301Z,17
2023-03-06T15:32:38.468Z,18
2023-03-06T15:33:38.310Z,19
2023-03-06T15:34:38.299Z,19
2023-03-06T15:35:38.481Z,20
2023-03-06T15:36:38.293Z,20
2023-03-06T15:37:38.342Z,19
2023-03-06T15:38:38.289Z,18
2023-03-06T15:39:38.307Z,19
2023-03-06T15:40:38.310Z,19
2023-03-06T15:42:38.365Z,19
2023-03-06T15:43:38.312Z,19
2023-03-06T15:45:38.355Z,18
2023-03-06T15:46:38.334Z,17
2023-03-06T15:47:38.313Z,18
2023-03-06T15:48:38.307Z,18